createdAt,value
2024-03-06T00:01:11.386Z,22.58
2024-03-06T00:03:38.562Z,25.00
2024-03-06T00:06:06.521Z,25.02
2024-03-06T00:08:35.400Z,23.05
2024-03-06T00:11:03.157Z,22.58
2024-03-06T00:13:30.314Z,22.20
2024-03-06T00:15:57.792Z,24.30
2024-03-06T00:18:25.002Z,21.15
2024-03-06T00:20:54.972Z,26.08
2024-03-06T00:23:22.273Z,21.95
2024-03-06T00:25:51.041Z,26.02
2024-03-06T00:28:18.176Z,24.40
2024-03-06T00:30:45.153Z,22.98
2024-03-06T00:33:12.260Z,23.52
2024-03-06T00:35:39.237Z,22.77
2024-03-06T00:38:07.635Z,25.10
2024-03-06T00:40:34.823Z,26.88
2024-03-06T00:43:03.410Z,23.17
2024-03-06T00:45:30.472Z,22.42
2024-03-06T00:47:57.806Z,22.70
2024-03-06T00:50:25.542Z,25.75
2024-03-06T00:52:52.607Z,23.83
2024-03-06T00:55:19.634Z,25.25
2024-03-06T00:57:47.435Z,24.95
2024-03-06T01:00:17.587Z,25.40
2024-03-06T01:02:44.649Z,20.63
2024-03-06T01:05:12.037Z,26.98
2024-03-06T01:07:40.502Z,25.33
2024-03-06T01:10:10.307Z,23.83
2024-03-06T01:12:37.730Z,26.95
2024-03-06T01:15:06.233Z,24.85
2024-03-06T01:17:34.768Z,21.67
2024-03-06T01:20:02.471Z,23.00
2024-03-06T01:22:29.620Z,25.90
2024-03-06T01:24:56.648Z,21.98
2024-03-06T01:27:23.733Z,26.30
2024-03-06T01:29:50.799Z,25.05
2024-03-06T01:32:17.896Z,23.75
2024-03-06T01:34:46.885Z,24.45
2024-03-06T01:37:14.135Z,24.75
2024-03-06T01:39:41.166Z,19.90
2024-03-06T01:42:08.199Z,27.45
2024-03-06T01:44:35.211Z,22.35
2024-03-06T01:47:02.278Z,22.58
2024-03-06T01:49:36.830Z,22.80
2024-03-06T01:52:15.109Z,23.48
2024-03-06T01:54:43.035Z,24.65
2024-03-06T01:57:14.436Z,24.83
2024-03-06T01:59:42.791Z,23.77
2024-03-06T02:02:12.367Z,27.08
2024-03-06T02:04:39.907Z,24.13
2024-03-06T02:07:14.024Z,21.02
2024-03-06T02:09:41.548Z,22.83
2024-03-06T02:12:09.578Z,24.83
2024-03-06T02:14:37.365Z,22.83
2024-03-06T02:17:04.608Z,25.25
2024-03-06T02:19:42.982Z,26.05
2024-03-06T02:22:12.625Z,24.45
2024-03-06T02:24:46.088Z,25.60
2024-03-06T02:27:13.333Z,23.85
2024-03-06T02:29:40.385Z,23.50
2024-03-06T02:32:07.451Z,22.42
2024-03-06T02:34:34.656Z,77.40
2024-03-06T02:37:01.749Z,19.88
2024-03-06T02:39:30.465Z,23.42
2024-03-06T02:41:57.862Z,26.08
2024-03-06T02:44:25.036Z,29.15
2024-03-06T02:46:52.363Z,25.13
2024-03-06T02:49:20.027Z,24.40
2024-03-06T02:51:47.429Z,23.58
2024-03-06T02:54:15.365Z,23.85
2024-03-06T02:56:43.816Z,23.25
2024-03-06T02:59:11.148Z,22.58
2024-03-06T03:01:39.545Z,23.77
2024-03-06T03:04:07.814Z,22.15
2024-03-06T03:06:35.389Z,23.27
2024-03-06T03:09:04.774Z,20.73
2024-03-06T03:11:33.256Z,18.77
2024-03-06T03:14:01.732Z,22.95
2024-03-06T03:16:28.818Z,16.38
2024-03-06T03:18:56.003Z,17.63
2024-03-06T03:21:23.599Z,19.40
2024-03-06T03:23:50.938Z,21.27
2024-03-06T03:26:18.110Z,20.85
2024-03-06T03:28:45.264Z,19.33
2024-03-06T03:31:13.844Z,19.20
2024-03-06T03:33:41.860Z,19.27
2024-03-06T03:36:10.560Z,19.45
2024-03-06T03:38:42.218Z,19.30
2024-03-06T03:41:10.107Z,16.42
2024-03-06T03:43:37.752Z,19.10
2024-03-06T03:46:05.561Z,18.02
2024-03-06T03:48:38.374Z,17.63
2024-03-06T03:51:06.695Z,20.77
2024-03-06T03:53:34.319Z,18.15
2024-03-06T03:56:02.129Z,18.13
2024-03-06T03:58:29.739Z,18.08
2024-03-06T04:00:57.386Z,17.02
2024-03-06T04:03:25.648Z,17.60
2024-03-06T04:05:54.231Z,18.40
2024-03-06T04:08:21.234Z,21.83
2024-03-06T04:10:48.446Z,19.33
2024-03-06T04:13:17.726Z,23.30
2024-03-06T04:15:44.972Z,17.63
2024-03-06T04:18:12.220Z,20.92
2024-03-06T04:20:39.549Z,20.48
2024-03-06T04:23:08.544Z,23.15
2024-03-06T04:25:35.749Z,19.92
2024-03-06T04:28:03.659Z,21.33
2024-03-06T04:30:30.860Z,23.10
2024-03-06T04:32:58.356Z,18.77
2024-03-06T04:35:25.475Z,23.23
2024-03-06T04:37:53.195Z,21.05
2024-03-06T04:40:23.462Z,20.55
2024-03-06T04:42:50.733Z,19.05
2024-03-06T04:45:18.769Z,22.20
2024-03-06T04:47:46.179Z,24.23
2024-03-06T04:50:15.664Z,18.50
2024-03-06T04:52:43.757Z,21.40
2024-03-06T04:55:15.404Z,22.95
2024-03-06T04:57:46.149Z,18.55
2024-03-06T06:02:01.000Z,22.58
2024-03-06T06:04:28.094Z,27.83
2024-03-06T06:06:55.312Z,23.52
2024-03-06T06:09:22.738Z,23.30
2024-03-06T06:11:51.760Z,22.20
2024-03-06T06:14:18.806Z,23.00
2024-03-06T06:16:45.882Z,21.42
2024-03-06T06:19:14.260Z,22.95
2024-03-06T06:21:44.539Z,24.10
2024-03-06T06:24:11.739Z,24.92
2024-03-06T06:26:39.002Z,23.48
2024-03-06T06:29:06.394Z,23.23
2024-03-06T06:31:33.476Z,26.58
2024-03-06T06:34:00.709Z,25.50
2024-03-06T06:36:29.169Z,27.85
2024-03-06T06:38:56.332Z,30.00
2024-03-06T06:41:24.196Z,27.10
2024-03-06T06:43:53.500Z,28.80
2024-03-06T06:46:22.170Z,25.20
2024-03-06T06:48:50.163Z,24.75
2024-03-06T06:51:17.303Z,23.65
2024-03-06T06:53:45.778Z,24.35
2024-03-06T06:56:13.272Z,24.42
2024-03-06T06:58:43.901Z,23.65
2024-03-06T07:03:38.216Z,20.70
2024-03-06T07:06:07.401Z,24.73
2024-03-06T07:08:34.693Z,21.70
2024-03-06T07:11:03.296Z,25.08
2024-03-06T07:13:30.409Z,19.95
2024-03-06T07:15:57.785Z,21.40
2024-03-06T07:18:25.047Z,21.90
2024-03-06T07:20:52.222Z,25.23
2024-03-06T07:23:19.634Z,20.58
2024-03-06T07:25:46.764Z,21.38
2024-03-06T07:28:15.115Z,22.00
2024-03-06T07:30:42.503Z,18.23
2024-03-06T07:33:10.053Z,24.40
2024-03-06T07:35:37.511Z,25.38
2024-03-06T07:38:05.876Z,21.20
2024-03-06T07:40:33.224Z,22.60
2024-03-06T07:43:00.925Z,20.20
2024-03-06T07:45:30.494Z,22.15
2024-03-06T07:47:57.778Z,20.67
2024-03-06T07:50:27.271Z,21.42
2024-03-06T07:52:56.079Z,20.10
2024-03-06T07:55:23.645Z,20.27
2024-03-06T07:57:50.777Z,17.50
2024-03-06T08:00:20.941Z,19.00
2024-03-06T08:02:51.273Z,19.10
2024-03-06T08:05:19.178Z,19.58
2024-03-06T08:07:47.181Z,20.58
2024-03-06T08:10:15.455Z,23.92
2024-03-06T08:12:43.116Z,19.95
2024-03-06T08:15:15.127Z,17.95
2024-03-06T08:17:44.817Z,18.73
2024-03-06T08:20:14.182Z,18.13
2024-03-06T08:22:43.925Z,20.45
2024-03-06T08:25:12.983Z,17.30
2024-03-06T08:27:42.314Z,17.13
2024-03-06T08:30:10.688Z,22.02
2024-03-06T08:32:39.032Z,20.27
2024-03-06T08:35:12.136Z,18.75
2024-03-06T08:37:41.754Z,19.98
2024-03-06T08:40:19.892Z,17.27
2024-03-06T08:42:50.402Z,20.13
2024-03-06T08:47:47.890Z,17.50
2024-03-06T08:50:16.031Z,22.05
2024-03-06T08:52:47.350Z,16.55
2024-03-06T08:55:15.040Z,20.10
2024-03-06T08:57:42.845Z,16.88
2024-03-06T09:00:15.929Z,20.75
2024-03-06T09:02:43.839Z,20.83
2024-03-06T09:05:13.836Z,37.20
2024-03-06T09:07:44.837Z,35.38
2024-03-06T09:10:14.350Z,43.97
2024-03-06T09:12:42.651Z,43.30
2024-03-06T09:15:11.135Z,38.65
2024-03-06T09:17:38.800Z,40.53
2024-03-06T09:20:14.354Z,33.78
2024-03-06T09:22:44.264Z,39.75
2024-03-06T09:25:15.909Z,35.47
2024-03-06T09:27:44.405Z,40.03
2024-03-06T09:30:14.620Z,54.13
2024-03-06T09:32:43.246Z,40.88
2024-03-06T09:35:10.886Z,34.65
2024-03-06T09:37:38.045Z,33.92
2024-03-06T09:40:08.874Z,34.47
2024-03-06T09:42:37.609Z,31.75
2024-03-06T09:45:06.502Z,33.25
2024-03-06T09:47:37.165Z,34.75
2024-03-06T09:50:10.256Z,33.20
2024-03-06T09:52:40.316Z,33.78
2024-03-06T09:55:11.100Z,26.63
2024-03-06T09:57:39.817Z,31.80
2024-03-06T10:00:09.545Z,30.58
2024-03-06T10:02:50.454Z,34.35
2024-03-06T10:05:24.894Z,32.35
2024-03-06T10:07:53.485Z,34.53
2024-03-06T10:10:21.931Z,33.47
2024-03-06T10:12:50.984Z,33.15
2024-03-06T10:15:18.513Z,32.95
2024-03-06T10:17:50.374Z,28.33
2024-03-06T10:20:23.345Z,32.92
2024-03-06T10:22:58.623Z,27.55
2024-03-06T10:25:28.352Z,32.55
2024-03-06T10:28:08.334Z,25.42
2024-03-06T10:30:37.021Z,25.83
2024-03-06T10:33:05.735Z,28.90
2024-03-06T10:35:33.060Z,35.40
2024-03-06T10:38:05.743Z,37.40
2024-03-06T10:40:34.898Z,34.20
2024-03-06T10:43:04.113Z,30.48
2024-03-06T10:45:45.135Z,30.75
2024-03-06T10:48:15.591Z,31.02
2024-03-06T10:53:18.651Z,32.28
2024-03-06T10:55:51.441Z,34.65
2024-03-06T10:58:23.625Z,39.88
2024-03-06T11:00:53.495Z,38.58
2024-03-06T11:03:21.219Z,41.47
2024-03-06T11:05:49.188Z,31.83
2024-03-06T11:08:18.485Z,32.67
2024-03-06T11:10:46.964Z,28.13
2024-03-06T11:13:24.580Z,32.97
2024-03-06T11:15:54.955Z,34.30
2024-03-06T11:18:46.393Z,34.97
2024-03-06T11:21:30.630Z,33.80
2024-03-06T11:24:21.241Z,35.88
2024-03-06T11:26:58.542Z,36.88
2024-03-06T11:29:29.247Z,32.90
2024-03-06T11:32:03.828Z,35.13
2024-03-06T11:34:34.405Z,30.83
2024-03-06T11:37:06.189Z,32.38
2024-03-06T11:39:36.654Z,31.92
2024-03-06T11:42:09.850Z,30.65
2024-03-06T11:44:38.230Z,35.92
2024-03-06T11:47:10.196Z,33.22
2024-03-06T11:49:38.983Z,33.97
2024-03-06T11:52:11.891Z,31.77
2024-03-06T11:54:40.115Z,29.58
2024-03-06T11:57:07.993Z,38.58
2024-03-06T11:59:39.865Z,42.72
2024-03-06T12:02:11.309Z,34.28
2024-03-06T12:04:39.792Z,37.90
2024-03-06T12:07:08.050Z,36.03
2024-03-06T12:09:41.167Z,39.92
2024-03-06T12:12:10.872Z,34.10
2024-03-06T12:14:41.130Z,39.35
2024-03-06T12:17:16.635Z,32.65
2024-03-06T12:19:46.484Z,29.85
2024-03-06T12:22:16.058Z,36.95
2024-03-06T12:24:43.962Z,25.52
2024-03-06T12:27:11.102Z,31.23
2024-03-06T12:29:39.090Z,30.40
2024-03-06T12:32:19.729Z,29.95
2024-03-06T12:34:59.909Z,32.10
2024-03-06T12:37:34.734Z,28.48
2024-03-06T12:40:05.600Z,27.58
2024-03-06T12:42:33.615Z,28.13
2024-03-06T12:45:00.814Z,33.38
2024-03-06T12:47:29.316Z,37.97
2024-03-06T12:49:57.012Z,38.03
2024-03-06T12:52:24.521Z,41.63
2024-03-06T12:54:51.741Z,29.10
2024-03-06T12:59:46.175Z,35.70
2024-03-06T13:02:13.547Z,35.15
2024-03-06T13:04:42.038Z,32.72
2024-03-06T13:07:09.189Z,37.63
2024-03-06T13:09:36.214Z,27.90
2024-03-06T13:12:03.693Z,33.05
2024-03-06T13:14:32.232Z,27.63
2024-03-06T13:16:59.592Z,35.63
2024-03-06T13:19:26.857Z,32.45
2024-03-06T13:21:55.951Z,37.20
2024-03-06T13:24:23.412Z,32.80
2024-03-06T13:26:51.456Z,26.85
2024-03-06T13:29:19.018Z,25.35
2024-03-06T13:31:46.097Z,27.80
2024-03-06T13:34:13.217Z,24.45
2024-03-06T13:36:40.321Z,28.58
2024-03-06T13:39:08.710Z,28.38
2024-03-06T13:41:35.880Z,27.52
2024-03-06T13:44:03.168Z,32.42
2024-03-06T13:46:30.269Z,38.08
2024-03-06T13:48:57.348Z,33.55
2024-03-06T13:51:24.542Z,33.28
2024-03-06T13:53:51.716Z,32.05
2024-03-06T13:56:20.338Z,32.85
2024-03-06T13:58:47.419Z,32.53
2024-03-06T14:01:17.300Z,26.55
2024-03-06T14:03:47.068Z,31.67
2024-03-06T14:06:14.170Z,30.15
2024-03-06T14:08:42.788Z,32.75
2024-03-06T14:11:10.346Z,28.75
2024-03-06T14:13:39.361Z,27.77
2024-03-06T14:16:07.336Z,28.33
2024-03-06T14:18:35.328Z,33.13
2024-03-06T14:21:02.486Z,30.90
2024-03-06T14:23:31.025Z,33.45
2024-03-06T14:25:58.185Z,28.08
2024-03-06T14:28:25.742Z,24.40
2024-03-06T14:30:54.444Z,27.30
2024-03-06T14:33:21.702Z,27.83
2024-03-06T14:35:50.560Z,28.00
2024-03-06T14:38:17.724Z,26.35
2024-03-06T14:40:45.533Z,26.35
2024-03-06T14:43:13.539Z,28.27
2024-03-06T14:45:43.553Z,29.38
2024-03-06T14:48:12.625Z,30.45
2024-03-06T14:50:39.837Z,28.33
2024-03-06T14:53:07.106Z,28.38
2024-03-06T14:55:35.031Z,26.27
2024-03-06T14:58:02.310Z,22.17
2024-03-06T15:00:29.660Z,27.67
2024-03-06T15:02:59.429Z,24.35
2024-03-06T15:05:28.732Z,26.67
2024-03-06T15:07:55.969Z,22.45
2024-03-06T15:10:23.506Z,26.90
2024-03-06T15:12:52.225Z,25.65
2024-03-06T15:15:20.511Z,33.55
2024-03-06T15:17:48.486Z,26.45
2024-03-06T15:20:18.402Z,25.42
2024-03-06T15:22:48.281Z,22.75
2024-03-06T15:25:18.643Z,24.52
2024-03-06T15:27:48.263Z,22.02
2024-03-06T15:30:15.724Z,25.42
2024-03-06T15:32:43.025Z,28.45
2024-03-06T15:35:10.374Z,30.98
2024-03-06T15:37:38.020Z,33.10
2024-03-06T15:40:10.926Z,28.33
2024-03-06T15:42:38.878Z,31.63
2024-03-06T15:45:07.254Z,33.83
2024-03-06T15:47:35.578Z,29.02
2024-03-06T15:50:03.063Z,32.50
2024-03-06T15:52:30.377Z,40.38
2024-03-06T15:54:58.073Z,31.83
2024-03-06T15:57:26.965Z,36.35
2024-03-06T15:59:54.192Z,29.58
2024-03-06T16:02:21.319Z,30.92
2024-03-06T16:04:48.576Z,32.15
2024-03-06T16:07:15.719Z,37.70
2024-03-06T16:09:42.834Z,34.85
2024-03-06T16:12:10.012Z,26.33
2024-03-06T16:14:38.450Z,30.50
2024-03-06T16:17:07.716Z,36.05
2024-03-06T16:19:38.992Z,30.95
2024-03-06T16:22:13.288Z,33.90
2024-03-06T16:24:40.763Z,31.10
2024-03-06T16:27:07.863Z,29.52
2024-03-06T16:29:35.307Z,31.95
2024-03-06T16:32:07.196Z,37.55
2024-03-06T16:34:34.670Z,36.90
2024-03-06T16:37:06.333Z,37.30
2024-03-06T16:39:33.638Z,29.88
2024-03-06T16:42:01.025Z,35.55
2024-03-06T16:44:28.211Z,32.65
2024-03-06T16:46:55.401Z,37.83
2024-03-06T16:49:23.945Z,36.03
2024-03-06T16:51:51.062Z,35.67
2024-03-06T16:54:18.730Z,30.08
2024-03-06T16:56:45.908Z,25.95
2024-03-06T16:59:13.254Z,29.65
2024-03-06T17:01:40.505Z,38.85
2024-03-06T17:04:08.482Z,37.05
2024-03-06T17:06:36.991Z,34.97
2024-03-06T17:09:06.461Z,32.97
2024-03-06T17:11:34.107Z,33.78
2024-03-06T17:14:01.224Z,34.88
2024-03-06T17:16:28.253Z,31.23
2024-03-06T17:18:55.365Z,30.90
2024-03-06T17:21:22.497Z,29.92
2024-03-06T17:23:53.032Z,32.67
2024-03-06T17:26:20.306Z,35.33
2024-03-06T17:28:50.253Z,37.83
2024-03-06T17:31:19.250Z,33.53
2024-03-06T17:33:46.285Z,31.80
2024-03-06T17:36:13.791Z,36.33
2024-03-06T17:38:42.617Z,35.72
2024-03-06T17:41:11.207Z,32.38
2024-03-06T17:43:38.672Z,29.45
2024-03-06T17:46:06.917Z,29.90
2024-03-06T17:48:34.645Z,27.73
2024-03-06T17:51:01.903Z,31.48
2024-03-06T17:53:29.310Z,36.80
2024-03-06T17:55:56.621Z,29.30
2024-03-06T17:58:24.970Z,26.25
2024-03-06T18:00:52.150Z,25.83
2024-03-06T18:03:21.908Z,34.25
2024-03-06T18:05:49.557Z,30.23
2024-03-06T18:08:16.748Z,27.98
2024-03-06T18:10:43.900Z,25.08
2024-03-06T18:13:10.989Z,32.03
2024-03-06T18:15:39.742Z,28.83
2024-03-06T18:18:07.281Z,27.95
2024-03-06T18:20:34.513Z,28.42
2024-03-06T18:23:01.653Z,30.98
2024-03-06T18:25:29.944Z,28.00
2024-03-06T18:27:57.445Z,29.00
2024-03-06T18:30:24.671Z,31.92
2024-03-06T18:32:53.110Z,31.00
2024-03-06T18:35:20.380Z,33.83
2024-03-06T18:37:49.059Z,25.35
2024-03-06T18:40:16.799Z,34.00
2024-03-06T18:42:44.496Z,31.13
2024-03-06T18:45:11.851Z,26.65
2024-03-06T18:47:39.218Z,26.75
2024-03-06T18:50:09.026Z,32.08
2024-03-06T18:52:36.148Z,28.77
2024-03-06T18:55:03.858Z,27.48
2024-03-06T18:57:30.989Z,26.55
2024-03-06T18:59:58.425Z,27.98
2024-03-06T19:02:25.681Z,26.67
2024-03-06T19:04:54.053Z,27.10
2024-03-06T19:07:22.786Z,21.10
2024-03-06T19:09:49.771Z,25.42
2024-03-06T19:12:17.095Z,20.77
2024-03-06T19:14:45.434Z,25.55
2024-03-06T19:17:13.317Z,20.80
2024-03-06T19:19:40.627Z,22.45
2024-03-06T19:22:10.699Z,25.90
2024-03-06T19:24:39.131Z,21.35
2024-03-06T19:27:06.325Z,25.90
2024-03-06T19:29:33.649Z,27.98
2024-03-06T19:32:03.790Z,24.08
2024-03-06T19:34:34.798Z,25.70
2024-03-06T19:37:02.186Z,23.85
2024-03-06T19:39:29.330Z,23.58
2024-03-06T19:41:59.207Z,23.92
2024-03-06T19:44:29.491Z,21.25
2024-03-06T19:46:56.795Z,17.25
2024-03-06T19:49:24.327Z,24.55
2024-03-06T19:51:52.913Z,25.65
2024-03-06T19:54:19.982Z,25.10
2024-03-06T19:56:50.139Z,21.27
2024-03-06T19:59:18.738Z,22.05
2024-03-06T20:01:45.871Z,20.73
2024-03-06T20:04:13.558Z,20.67
2024-03-06T20:06:40.681Z,22.45
2024-03-06T20:09:09.320Z,18.05
2024-03-06T20:11:36.597Z,16.95
2024-03-06T20:14:04.026Z,17.10
2024-03-06T20:16:32.640Z,16.98
2024-03-06T20:19:00.607Z,17.05
2024-03-06T20:21:28.093Z,15.85
2024-03-06T20:23:55.524Z,14.10
2024-03-06T20:26:22.725Z,13.13
2024-03-06T20:28:51.666Z,16.98
2024-03-06T20:31:19.058Z,13.82
2024-03-06T20:33:47.454Z,16.75
2024-03-06T20:36:14.651Z,13.73
2024-03-06T20:38:41.838Z,14.38
2024-03-06T20:41:09.099Z,11.05
2024-03-06T20:43:40.301Z,15.02
2024-03-06T20:46:09.019Z,11.68
2024-03-06T20:48:36.985Z,14.77
2024-03-06T20:51:10.270Z,14.25
2024-03-06T20:53:37.580Z,13.05
2024-03-06T20:56:07.340Z,11.77
2024-03-06T20:58:34.693Z,15.65
2024-03-06T21:01:05.025Z,13.73
2024-03-06T21:05:59.793Z,13.00
2024-03-06T21:08:28.559Z,11.38
2024-03-06T21:10:55.811Z,13.85
2024-03-06T21:13:22.919Z,12.90
2024-03-06T21:15:49.954Z,13.07
2024-03-06T21:18:17.193Z,14.07
2024-03-06T21:20:44.798Z,13.82
2024-03-06T21:23:12.177Z,15.18
2024-03-06T21:25:40.717Z,13.48
2024-03-06T21:28:08.083Z,15.63
2024-03-06T21:30:35.144Z,15.48
2024-03-06T21:33:02.310Z,15.05
2024-03-06T21:35:30.096Z,13.93
2024-03-06T21:37:57.352Z,14.40
2024-03-06T21:40:25.374Z,15.02
2024-03-06T21:42:54.043Z,15.55
2024-03-06T21:45:21.273Z,15.07
2024-03-06T21:47:48.351Z,14.50
2024-03-06T21:50:17.014Z,14.65
2024-03-06T21:52:44.053Z,16.30
2024-03-06T21:55:13.444Z,15.00
2024-03-06T21:57:40.776Z,13.35
2024-03-06T22:00:14.736Z,13.77
2024-03-06T22:02:41.995Z,14.68
2024-03-06T22:05:10.117Z,13.15
2024-03-06T22:07:38.228Z,13.82
2024-03-06T22:10:08.926Z,14.45
2024-03-06T22:12:36.796Z,16.17
2024-03-06T22:15:04.494Z,15.60
2024-03-06T22:17:33.361Z,15.48
2024-03-06T22:20:00.704Z,14.15
2024-03-06T22:22:27.970Z,12.48
2024-03-06T22:24:55.117Z,13.07
2024-03-06T22:27:22.321Z,15.48
2024-03-06T22:29:49.588Z,15.73
2024-03-06T22:32:17.948Z,13.07
2024-03-06T22:34:46.594Z,14.52
2024-03-06T22:37:13.737Z,14.00
2024-03-06T22:39:41.209Z,12.77
2024-03-06T22:42:08.323Z,15.23
2024-03-06T22:44:38.782Z,12.48
2024-03-06T22:47:08.300Z,13.65
2024-03-06T22:49:36.136Z,12.82
2024-03-06T22:52:04.989Z,10.90
2024-03-06T22:54:32.391Z,12.30
2024-03-06T22:56:59.927Z,12.35
2024-03-06T22:59:27.055Z,11.82
2024-03-06T23:01:54.312Z,13.45
2024-03-06T23:04:21.509Z,12.70
2024-03-06T23:06:49.819Z,11.70
2024-03-06T23:09:18.539Z,13.30
2024-03-06T23:11:45.645Z,13.48
2024-03-06T23:14:13.021Z,12.02
2024-03-06T23:16:40.085Z,12.82
2024-03-06T23:19:07.206Z,15.15
2024-03-06T23:21:36.565Z,14.95
2024-03-06T23:24:05.116Z,15.90
2024-03-06T23:26:33.706Z,17.50
2024-03-06T23:29:01.156Z,18.25
2024-03-06T23:31:28.556Z,20.27
2024-03-06T23:33:55.928Z,18.23
2024-03-06T23:36:22.988Z,17.10
2024-03-06T23:38:50.474Z,21.38
2024-03-06T23:41:20.792Z,20.85
2024-03-06T23:43:49.300Z,20.73
2024-03-06T23:46:16.383Z,22.50
2024-03-06T23:48:43.677Z,21.15
2024-03-06T23:51:11.206Z,22.35
2024-03-06T23:53:38.396Z,16.42
2024-03-06T23:56:07.270Z,21.10
2024-03-06T23:58:34.501Z,18.35
